sensor_id;sensor_type;location;lat;lon;timestamp;temperature;humidity
69589;SHT31;56792;50.644;17.984;2024-03-29T00:01:34;9.12;69.42
69589;SHT31;56792;50.644;17.984;2024-03-29T00:04:05;9.08;69.41
69589;SHT31;56792;50.644;17.984;2024-03-29T00:06:36;9.06;69.47
69589;SHT31;56792;50.644;17.984;2024-03-29T00:09:06;9.03;69.49
69589;SHT31;56792;50.644;17.984;2024-03-29T00:11:37;9.00;69.53
69589;SHT31;56792;50.644;17.984;2024-03-29T00:14:08;8.96;69.64
69589;SHT31;56792;50.644;17.984;2024-03-29T00:16:39;8.91;69.85
69589;SHT31;56792;50.644;17.984;2024-03-29T00:19:10;8.87;70.04
69589;SHT31;56792;50.644;17.984;2024-03-29T00:21:41;8.84;70.14
69589;SHT31;56792;50.644;17.984;2024-03-29T00:24:12;8.78;70.30
69589;SHT31;56792;50.644;17.984;2024-03-29T00:26:43;8.77;70.22
69589;SHT31;56792;50.644;17.984;2024-03-29T00:29:14;8.76;70.29
69589;SHT31;56792;50.644;17.984;2024-03-29T00:31:45;8.75;70.38
69589;SHT31;56792;50.644;17.984;2024-03-29T00:34:15;8.73;70.47
69589;SHT31;56792;50.644;17.984;2024-03-29T00:36:46;8.70;70.59
69589;SHT31;56792;50.644;17.984;2024-03-29T00:39:19;8.67;70.48
69589;SHT31;56792;50.644;17.984;2024-03-29T00:41:50;8.67;70.47
69589;SHT31;56792;50.644;17.984;2024-03-29T00:44:21;8.65;70.42
69589;SHT31;56792;50.644;17.984;2024-03-29T00:46:52;8.64;70.36
69589;SHT31;56792;50.644;17.984;2024-03-29T00:49:23;8.65;70.33
69589;SHT31;56792;50.644;17.984;2024-03-29T00:51:54;8.60;70.32
69589;SHT31;56792;50.644;17.984;2024-03-29T00:54:25;8.57;70.31
69589;SHT31;56792;50.644;17.984;2024-03-29T00:56:56;8.55;70.31
69589;SHT31;56792;50.644;17.984;2024-03-29T00:59:26;8.52;70.31
69589;SHT31;56792;50.644;17.984;2024-03-29T01:01:57;8.49;70.36
69589;SHT31;56792;50.644;17.984;2024-03-29T01:04:28;8.44;70.57
69589;SHT31;56792;50.644;17.984;2024-03-29T01:06:59;8.39;70.63
69589;SHT31;56792;50.644;17.984;2024-03-29T01:09:30;8.36;70.70
69589;SHT31;56792;50.644;17.984;2024-03-29T01:12:01;8.36;70.60
69589;SHT31;56792;50.644;17.984;2024-03-29T01:14:33;8.37;70.47
69589;SHT31;56792;50.644;17.984;2024-03-29T01:17:04;8.41;70.28
69589;SHT31;56792;50.644;17.984;2024-03-29T01:19:35;8.44;70.23
69589;SHT31;56792;50.644;17.984;2024-03-29T01:22:06;8.40;70.25
69589;SHT31;56792;50.644;17.984;2024-03-29T01:24:36;8.37;70.28
69589;SHT31;56792;50.644;17.984;2024-03-29T01:27:07;8.34;70.24
69589;SHT31;56792;50.644;17.984;2024-03-29T01:29:38;8.31;70.28
69589;SHT31;56792;50.644;17.984;2024-03-29T01:32:09;8.28;70.44
69589;SHT31;56792;50.644;17.984;2024-03-29T01:34:40;8.25;70.35
69589;SHT31;56792;50.644;17.984;2024-03-29T01:37:11;8.21;70.33
69589;SHT31;56792;50.644;17.984;2024-03-29T01:39:42;8.19;70.37
69589;SHT31;56792;50.644;17.984;2024-03-29T01:42:13;8.18;70.35
69589;SHT31;56792;50.644;17.984;2024-03-29T01:44:44;8.16;70.33
69589;SHT31;56792;50.644;17.984;2024-03-29T01:47:16;8.14;70.28
69589;SHT31;56792;50.644;17.984;2024-03-29T01:49:48;8.13;70.22
69589;SHT31;56792;50.644;17.984;2024-03-29T01:52:19;8.11;70.41
69589;SHT31;56792;50.644;17.984;2024-03-29T01:54:51;8.07;70.34
69589;SHT31;56792;50.644;17.984;2024-03-29T01:57:22;8.06;70.23
69589;SHT31;56792;50.644;17.984;2024-03-29T01:59:53;8.04;70.31
69589;SHT31;56792;50.644;17.984;2024-03-29T02:02:25;8.01;70.42
69589;SHT31;56792;50.644;17.984;2024-03-29T02:04:56;7.98;70.46
69589;SHT31;56792;50.644;17.984;2024-03-29T02:07:28;7.97;70.44
69589;SHT31;56792;50.644;17.984;2024-03-29T02:10:00;7.96;70.46
69589;SHT31;56792;50.644;17.984;2024-03-29T02:12:34;7.93;70.53
69589;SHT31;56792;50.644;17.984;2024-03-29T02:15:05;7.89;70.65
69589;SHT31;56792;50.644;17.984;2024-03-29T02:17:41;7.85;70.62
69589;SHT31;56792;50.644;17.984;2024-03-29T02:20:12;7.82;70.66
69589;SHT31;56792;50.644;17.984;2024-03-29T02:22:45;7.78;70.81
69589;SHT31;56792;50.644;17.984;2024-03-29T02:25:21;7.74;70.81
69589;SHT31;56792;50.644;17.984;2024-03-29T02:27:52;7.70;70.85
69589;SHT31;56792;50.644;17.984;2024-03-29T02:30:27;7.68;70.92
69589;SHT31;56792;50.644;17.984;2024-03-29T02:32:58;7.64;70.98
69589;SHT31;56792;50.644;17.984;2024-03-29T02:35:30;7.61;71.00
69589;SHT31;56792;50.644;17.984;2024-03-29T02:38:00;7.59;71.01
69589;SHT31;56792;50.644;17.984;2024-03-29T02:40:32;7.55;71.14
69589;SHT31;56792;50.644;17.984;2024-03-29T02:43:03;7.51;71.28
69589;SHT31;56792;50.644;17.984;2024-03-29T02:45:35;7.44;71.39
69589;SHT31;56792;50.644;17.984;2024-03-29T02:48:07;7.38;71.56
69589;SHT31;56792;50.644;17.984;2024-03-29T02:50:38;7.33;71.68
69589;SHT31;56792;50.644;17.984;2024-03-29T02:53:09;7.27;71.85
69589;SHT31;56792;50.644;17.984;2024-03-29T02:55:42;7.22;71.94
69589;SHT31;56792;50.644;17.984;2024-03-29T02:58:12;7.17;72.07
69589;SHT31;56792;50.644;17.984;2024-03-29T03:00:43;7.10;72.33
69589;SHT31;56792;50.644;17.984;2024-03-29T03:03:15;7.06;72.35
69589;SHT31;56792;50.644;17.984;2024-03-29T03:05:46;7.03;72.57
69589;SHT31;56792;50.644;17.984;2024-03-29T03:08:18;6.96;72.63
69589;SHT31;56792;50.644;17.984;2024-03-29T03:11:07;6.86;72.69
69589;SHT31;56792;50.644;17.984;2024-03-29T03:13:38;6.82;72.71
69589;SHT31;56792;50.644;17.984;2024-03-29T03:16:09;6.77;72.77
69589;SHT31;56792;50.644;17.984;2024-03-29T03:18:40;6.77;72.93
69589;SHT31;56792;50.644;17.984;2024-03-29T03:21:11;6.76;72.76
69589;SHT31;56792;50.644;17.984;2024-03-29T03:23:42;6.73;72.74
69589;SHT31;56792;50.644;17.984;2024-03-29T03:26:13;6.71;72.71
69589;SHT31;56792;50.644;17.984;2024-03-29T03:28:44;6.70;72.78
69589;SHT31;56792;50.644;17.984;2024-03-29T03:31:14;6.69;72.82
69589;SHT31;56792;50.644;17.984;2024-03-29T03:33:45;6.70;72.74
69589;SHT31;56792;50.644;17.984;2024-03-29T03:36:17;6.70;72.71
69589;SHT31;56792;50.644;17.984;2024-03-29T03:38:47;6.68;72.88
69589;SHT31;56792;50.644;17.984;2024-03-29T03:41:18;6.68;72.82
69589;SHT31;56792;50.644;17.984;2024-03-29T03:43:49;6.68;72.79
69589;SHT31;56792;50.644;17.984;2024-03-29T03:46:20;6.68;72.79
69589;SHT31;56792;50.644;17.984;2024-03-29T03:48:51;6.66;72.76
69589;SHT31;56792;50.644;17.984;2024-03-29T03:51:22;6.62;72.80
69589;SHT31;56792;50.644;17.984;2024-03-29T03:53:53;6.58;72.85
69589;SHT31;56792;50.644;17.984;2024-03-29T03:56:24;6.53;72.88
69589;SHT31;56792;50.644;17.984;2024-03-29T03:58:55;6.47;73.08
69589;SHT31;56792;50.644;17.984;2024-03-29T04:01:26;6.43;73.15
69589;SHT31;56792;50.644;17.984;2024-03-29T04:03:57;6.41;73.16
69589;SHT31;56792;50.644;17.984;2024-03-29T04:06:28;6.37;73.18
69589;SHT31;56792;50.644;17.984;2024-03-29T04:08:59;6.34;73.20
69589;SHT31;56792;50.644;17.984;2024-03-29T04:11:30;6.34;73.30
69589;SHT31;56792;50.644;17.984;2024-03-29T04:14:00;6.32;73.27
69589;SHT31;56792;50.644;17.984;2024-03-29T04:16:32;6.30;73.33
69589;SHT31;56792;50.644;17.984;2024-03-29T04:19:03;6.28;73.45
69589;SHT31;56792;50.644;17.984;2024-03-29T04:21:33;6.28;73.55
69589;SHT31;56792;50.644;17.984;2024-03-29T04:24:05;6.24;73.56
69589;SHT31;56792;50.644;17.984;2024-03-29T04:26:36;6.18;73.68
69589;SHT31;56792;50.644;17.984;2024-03-29T04:29:10;6.14;73.80
69589;SHT31;56792;50.644;17.984;2024-03-29T04:31:41;6.13;73.80
69589;SHT31;56792;50.644;17.984;2024-03-29T04:34:15;6.08;73.84
69589;SHT31;56792;50.644;17.984;2024-03-29T04:36:46;6.01;74.18
69589;SHT31;56792;50.644;17.984;2024-03-29T04:39:17;5.98;74.26
69589;SHT31;56792;50.644;17.984;2024-03-29T04:41:48;5.91;74.28
69589;SHT31;56792;50.644;17.984;2024-03-29T04:44:24;5.86;74.45
69589;SHT31;56792;50.644;17.984;2024-03-29T04:46:57;5.81;74.52
69589;SHT31;56792;50.644;17.984;2024-03-29T04:49:28;5.79;74.66
69589;SHT31;56792;50.644;17.984;2024-03-29T04:52:01;5.81;74.57
69589;SHT31;56792;50.644;17.984;2024-03-29T04:54:33;5.76;74.65
69589;SHT31;56792;50.644;17.984;2024-03-29T04:57:04;5.73;74.78
69589;SHT31;56792;50.644;17.984;2024-03-29T04:59:35;5.73;75.10
69589;SHT31;56792;50.644;17.984;2024-03-29T05:02:06;5.78;75.42
69589;SHT31;56792;50.644;17.984;2024-03-29T05:04:37;5.82;75.59
69589;SHT31;56792;50.644;17.984;2024-03-29T05:07:09;5.84;75.79
69589;SHT31;56792;50.644;17.984;2024-03-29T05:09:41;5.85;75.89
69589;SHT31;56792;50.644;17.984;2024-03-29T05:12:12;5.88;75.87
69589;SHT31;56792;50.644;17.984;2024-03-29T05:14:43;5.93;75.82
69589;SHT31;56792;50.644;17.984;2024-03-29T05:17:16;5.96;75.83
69589;SHT31;56792;50.644;17.984;2024-03-29T05:19:51;6.01;75.92
69589;SHT31;56792;50.644;17.984;2024-03-29T05:22:22;6.04;75.94
69589;SHT31;56792;50.644;17.984;2024-03-29T05:24:53;6.09;75.86
69589;SHT31;56792;50.644;17.984;2024-03-29T05:27:24;6.13;75.93
69589;SHT31;56792;50.644;17.984;2024-03-29T05:29:56;6.20;75.99
69589;SHT31;56792;50.644;17.984;2024-03-29T05:32:27;6.23;76.15
69589;SHT31;56792;50.644;17.984;2024-03-29T05:34:58;6.23;76.18
69589;SHT31;56792;50.644;17.984;2024-03-29T05:37:29;6.26;76.30
69589;SHT31;56792;50.644;17.984;2024-03-29T05:39:59;6.32;76.25
69589;SHT31;56792;50.644;17.984;2024-03-29T05:42:32;6.34;76.25
69589;SHT31;56792;50.644;17.984;2024-03-29T05:45:05;6.38;76.34
69589;SHT31;56792;50.644;17.984;2024-03-29T05:47:52;6.44;76.24
69589;SHT31;56792;50.644;17.984;2024-03-29T05:50:25;6.50;76.11
69589;SHT31;56792;50.644;17.984;2024-03-29T05:52:56;6.55;76.04
69589;SHT31;56792;50.644;17.984;2024-03-29T05:55:27;6.61;75.99
69589;SHT31;56792;50.644;17.984;2024-03-29T05:57:58;6.67;75.85
69589;SHT31;56792;50.644;17.984;2024-03-29T06:00:29;6.75;75.72
69589;SHT31;56792;50.644;17.984;2024-03-29T06:03:01;6.82;75.67
69589;SHT31;56792;50.644;17.984;2024-03-29T06:05:33;6.89;75.60
69589;SHT31;56792;50.644;17.984;2024-03-29T06:08:04;6.97;75.35
69589;SHT31;56792;50.644;17.984;2024-03-29T06:10:36;7.07;75.15
69589;SHT31;56792;50.644;17.984;2024-03-29T06:13:07;7.18;74.69
69589;SHT31;56792;50.644;17.984;2024-03-29T06:15:54;7.30;74.47
69589;SHT31;56792;50.644;17.984;2024-03-29T06:18:42;7.42;74.11
69589;SHT31;56792;50.644;17.984;2024-03-29T06:21:13;7.54;73.79
69589;SHT31;56792;50.644;17.984;2024-03-29T06:23:44;7.66;73.28
69589;SHT31;56792;50.644;17.984;2024-03-29T06:26:15;7.77;73.10
69589;SHT31;56792;50.644;17.984;2024-03-29T06:28:47;7.87;73.05
69589;SHT31;56792;50.644;17.984;2024-03-29T06:31:18;8.00;72.33
69589;SHT31;56792;50.644;17.984;2024-03-29T06:33:49;8.11;72.00
69589;SHT31;56792;50.644;17.984;2024-03-29T06:36:20;8.22;71.73
69589;SHT31;56792;50.644;17.984;2024-03-29T06:38:51;8.31;71.76
69589;SHT31;56792;50.644;17.984;2024-03-29T06:41:23;8.44;71.27
69589;SHT31;56792;50.644;17.984;2024-03-29T06:43:54;8.59;70.94
69589;SHT31;56792;50.644;17.984;2024-03-29T06:46:25;8.72;70.57
69589;SHT31;56792;50.644;17.984;2024-03-29T06:48:55;8.85;70.32
69589;SHT31;56792;50.644;17.984;2024-03-29T06:51:27;8.92;70.25
69589;SHT31;56792;50.644;17.984;2024-03-29T06:53:58;9.02;70.30
69589;SHT31;56792;50.644;17.984;2024-03-29T06:56:30;9.14;68.87
69589;SHT31;56792;50.644;17.984;2024-03-29T06:59:01;9.24;68.98
69589;SHT31;56792;50.644;17.984;2024-03-29T07:01:32;9.30;68.77
69589;SHT31;56792;50.644;17.984;2024-03-29T07:04:03;9.38;68.69
69589;SHT31;56792;50.644;17.984;2024-03-29T07:06:34;9.47;68.48
69589;SHT31;56792;50.644;17.984;2024-03-29T07:09:06;9.60;67.99
69589;SHT31;56792;50.644;17.984;2024-03-29T07:11:39;9.74;67.55
69589;SHT31;56792;50.644;17.984;2024-03-29T07:14:10;9.85;67.22
69589;SHT31;56792;50.644;17.984;2024-03-29T07:16:41;9.98;67.03
69589;SHT31;56792;50.644;17.984;2024-03-29T07:19:12;10.11;66.35
69589;SHT31;56792;50.644;17.984;2024-03-29T07:21:45;10.14;65.52
69589;SHT31;56792;50.644;17.984;2024-03-29T07:24:19;10.15;65.64
69589;SHT31;56792;50.644;17.984;2024-03-29T07:26:49;10.17;65.70
69589;SHT31;56792;50.644;17.984;2024-03-29T07:29:20;10.22;66.02
69589;SHT31;56792;50.644;17.984;2024-03-29T07:31:51;10.29;66.13
69589;SHT31;56792;50.644;17.984;2024-03-29T07:34:22;10.36;65.86
69589;SHT31;56792;50.644;17.984;2024-03-29T07:36:53;10.41;65.40
69589;SHT31;56792;50.644;17.984;2024-03-29T07:39:24;10.46;64.99
69589;SHT31;56792;50.644;17.984;2024-03-29T07:41:55;10.53;64.89
69589;SHT31;56792;50.644;17.984;2024-03-29T07:44:26;10.62;64.96
69589;SHT31;56792;50.644;17.984;2024-03-29T07:46:57;10.67;63.78
69589;SHT31;56792;50.644;17.984;2024-03-29T07:49:28;10.75;64.24
69589;SHT31;56792;50.644;17.984;2024-03-29T07:51:59;10.85;63.49
69589;SHT31;56792;50.644;17.984;2024-03-29T07:54:32;10.91;63.19
69589;SHT31;56792;50.644;17.984;2024-03-29T07:57:03;11.02;63.30
69589;SHT31;56792;50.644;17.984;2024-03-29T07:59:35;11.12;63.22
69589;SHT31;56792;50.644;17.984;2024-03-29T08:02:06;11.25;62.85
69589;SHT31;56792;50.644;17.984;2024-03-29T08:04:37;11.31;61.96
69589;SHT31;56792;50.644;17.984;2024-03-29T08:07:09;11.38;61.82
69589;SHT31;56792;50.644;17.984;2024-03-29T08:09:40;11.49;60.84
69589;SHT31;56792;50.644;17.984;2024-03-29T08:12:11;11.56;60.54
69589;SHT31;56792;50.644;17.984;2024-03-29T08:14:42;11.70;61.06
69589;SHT31;56792;50.644;17.984;2024-03-29T08:17:13;11.78;59.97
69589;SHT31;56792;50.644;17.984;2024-03-29T08:19:44;11.77;59.83
69589;SHT31;56792;50.644;17.984;2024-03-29T08:22:15;11.84;60.55
69589;SHT31;56792;50.644;17.984;2024-03-29T08:24:46;11.95;61.01
69589;SHT31;56792;50.644;17.984;2024-03-29T08:27:17;12.07;60.26
69589;SHT31;56792;50.644;17.984;2024-03-29T08:29:48;12.18;60.13
69589;SHT31;56792;50.644;17.984;2024-03-29T08:32:18;12.29;59.43
69589;SHT31;56792;50.644;17.984;2024-03-29T08:34:49;12.42;59.39
69589;SHT31;56792;50.644;17.984;2024-03-29T08:37:20;12.59;59.10
69589;SHT31;56792;50.644;17.984;2024-03-29T08:39:51;12.70;58.78
69589;SHT31;56792;50.644;17.984;2024-03-29T08:42:22;12.83;58.00
69589;SHT31;56792;50.644;17.984;2024-03-29T08:44:53;12.96;58.55
69589;SHT31;56792;50.644;17.984;2024-03-29T08:47:26;13.11;57.99
69589;SHT31;56792;50.644;17.984;2024-03-29T08:49:57;13.24;56.68
69589;SHT31;56792;50.644;17.984;2024-03-29T08:52:30;13.39;56.04
69589;SHT31;56792;50.644;17.984;2024-03-29T08:55:01;13.49;54.40
69589;SHT31;56792;50.644;17.984;2024-03-29T08:57:33;13.58;53.47
69589;SHT31;56792;50.644;17.984;2024-03-29T09:00:05;13.64;52.86
69589;SHT31;56792;50.644;17.984;2024-03-29T09:02:39;13.68;53.45
69589;SHT31;56792;50.644;17.984;2024-03-29T09:05:10;13.73;53.65
69589;SHT31;56792;50.644;17.984;2024-03-29T09:07:41;13.80;53.38
69589;SHT31;56792;50.644;17.984;2024-03-29T09:10:12;13.85;53.56
69589;SHT31;56792;50.644;17.984;2024-03-29T09:12:44;13.99;53.57
69589;SHT31;56792;50.644;17.984;2024-03-29T09:15:15;14.20;53.58
69589;SHT31;56792;50.644;17.984;2024-03-29T09:17:46;14.37;52.01
69589;SHT31;56792;50.644;17.984;2024-03-29T09:20:20;14.45;51.27
69589;SHT31;56792;50.644;17.984;2024-03-29T09:22:52;14.44;49.84
69589;SHT31;56792;50.644;17.984;2024-03-29T09:25:22;14.53;49.99
69589;SHT31;56792;50.644;17.984;2024-03-29T09:27:53;14.68;48.69
69589;SHT31;56792;50.644;17.984;2024-03-29T09:30:27;14.89;48.71
69589;SHT31;56792;50.644;17.984;2024-03-29T09:32:58;15.15;47.62
69589;SHT31;56792;50.644;17.984;2024-03-29T09:35:33;15.31;46.16
69589;SHT31;56792;50.644;17.984;2024-03-29T09:38:04;15.47;46.48
69589;SHT31;56792;50.644;17.984;2024-03-29T09:40:35;15.72;46.77
69589;SHT31;56792;50.644;17.984;2024-03-29T09:43:07;15.89;44.53
69589;SHT31;56792;50.644;17.984;2024-03-29T09:45:42;15.90;43.74
69589;SHT31;56792;50.644;17.984;2024-03-29T09:48:14;15.90;44.34
69589;SHT31;56792;50.644;17.984;2024-03-29T09:50:45;15.91;43.72
69589;SHT31;56792;50.644;17.984;2024-03-29T09:53:18;15.84;44.15
69589;SHT31;56792;50.644;17.984;2024-03-29T09:55:50;15.73;43.85
69589;SHT31;56792;50.644;17.984;2024-03-29T09:58:22;15.69;43.34
69589;SHT31;56792;50.644;17.984;2024-03-29T10:00:53;15.84;44.05
69589;SHT31;56792;50.644;17.984;2024-03-29T10:03:25;15.94;43.55
69589;SHT31;56792;50.644;17.984;2024-03-29T10:06:00;16.05;42.59
69589;SHT31;56792;50.644;17.984;2024-03-29T10:08:31;16.11;42.55
69589;SHT31;56792;50.644;17.984;2024-03-29T10:11:04;16.19;42.81
69589;SHT31;56792;50.644;17.984;2024-03-29T10:13:35;16.33;42.49
69589;SHT31;56792;50.644;17.984;2024-03-29T10:16:06;16.40;42.14
69589;SHT31;56792;50.644;17.984;2024-03-29T10:18:40;16.43;41.85
69589;SHT31;56792;50.644;17.984;2024-03-29T10:21:11;16.51;41.65
69589;SHT31;56792;50.644;17.984;2024-03-29T10:23:43;16.59;41.95
69589;SHT31;56792;50.644;17.984;2024-03-29T10:26:15;16.74;42.26
69589;SHT31;56792;50.644;17.984;2024-03-29T10:28:46;16.92;42.00
69589;SHT31;56792;50.644;17.984;2024-03-29T10:31:18;17.03;40.98
69589;SHT31;56792;50.644;17.984;2024-03-29T10:33:49;17.14;39.94
69589;SHT31;56792;50.644;17.984;2024-03-29T10:36:21;17.18;39.55
69589;SHT31;56792;50.644;17.984;2024-03-29T10:38:54;17.30;40.04
69589;SHT31;56792;50.644;17.984;2024-03-29T10:41:25;17.35;38.70
69589;SHT31;56792;50.644;17.984;2024-03-29T10:43:57;17.37;39.01
69589;SHT31;56792;50.644;17.984;2024-03-29T10:46:31;17.48;39.35
69589;SHT31;56792;50.644;17.984;2024-03-29T10:49:04;17.54;37.32
69589;SHT31;56792;50.644;17.984;2024-03-29T10:51:38;17.50;36.89
69589;SHT31;56792;50.644;17.984;2024-03-29T10:54:10;17.58;37.99
69589;SHT31;56792;50.644;17.984;2024-03-29T10:56:42;17.72;39.60
69589;SHT31;56792;50.644;17.984;2024-03-29T10:59:21;17.69;38.40
69589;SHT31;56792;50.644;17.984;2024-03-29T11:02:00;17.73;38.62
69589;SHT31;56792;50.644;17.984;2024-03-29T11:04:39;17.75;38.63
69589;SHT31;56792;50.644;17.984;2024-03-29T11:07:15;17.84;38.98
69589;SHT31;56792;50.644;17.984;2024-03-29T11:09:50;17.85;37.71
69589;SHT31;56792;50.644;17.984;2024-03-29T11:12:28;17.95;38.13
69589;SHT31;56792;50.644;17.984;2024-03-29T11:15:16;17.95;37.91
69589;SHT31;56792;50.644;17.984;2024-03-29T11:17:56;17.92;37.44
69589;SHT31;56792;50.644;17.984;2024-03-29T11:20:28;17.94;37.30
69589;SHT31;56792;50.644;17.984;2024-03-29T11:23:05;18.04;36.92
69589;SHT31;56792;50.644;17.984;2024-03-29T11:25:40;18.25;36.69
69589;SHT31;56792;50.644;17.984;2024-03-29T11:28:13;18.34;35.52
69589;SHT31;56792;50.644;17.984;2024-03-29T11:30:53;18.36;35.50
69589;SHT31;56792;50.644;17.984;2024-03-29T11:33:34;18.47;35.22
69589;SHT31;56792;50.644;17.984;2024-03-29T11:36:15;18.48;35.15
69589;SHT31;56792;50.644;17.984;2024-03-29T11:38:48;18.55;35.59
69589;SHT31;56792;50.644;17.984;2024-03-29T11:41:21;18.70;34.93
69589;SHT31;56792;50.644;17.984;2024-03-29T11:43:56;18.78;34.94
69589;SHT31;56792;50.644;17.984;2024-03-29T11:46:28;18.84;34.19
69589;SHT31;56792;50.644;17.984;2024-03-29T11:49:01;18.91;35.00
69589;SHT31;56792;50.644;17.984;2024-03-29T11:51:32;19.05;34.70
69589;SHT31;56792;50.644;17.984;2024-03-29T11:54:04;19.11;34.29
69589;SHT31;56792;50.644;17.984;2024-03-29T11:56:36;19.11;34.74
69589;SHT31;56792;50.644;17.984;2024-03-29T11:59:07;19.19;34.69
69589;SHT31;56792;50.644;17.984;2024-03-29T12:01:39;19.10;33.90
69589;SHT31;56792;50.644;17.984;2024-03-29T12:04:10;19.07;34.68
69589;SHT31;56792;50.644;17.984;2024-03-29T12:06:50;19.20;35.15
69589;SHT31;56792;50.644;17.984;2024-03-29T12:09:21;19.26;34.68
69589;SHT31;56792;50.644;17.984;2024-03-29T12:11:52;19.00;34.48
69589;SHT31;56792;50.644;17.984;2024-03-29T12:14:26;18.76;34.99
69589;SHT31;56792;50.644;17.984;2024-03-29T12:17:01;18.55;35.48
69589;SHT31;56792;50.644;17.984;2024-03-29T12:19:38;18.28;36.00
69589;SHT31;56792;50.644;17.984;2024-03-29T12:22:10;18.31;36.40
69589;SHT31;56792;50.644;17.984;2024-03-29T12:24:41;18.52;37.08
69589;SHT31;56792;50.644;17.984;2024-03-29T12:27:12;18.81;36.77
69589;SHT31;56792;50.644;17.984;2024-03-29T12:29:45;18.97;36.79
69589;SHT31;56792;50.644;17.984;2024-03-29T12:32:18;19.07;36.59
69589;SHT31;56792;50.644;17.984;2024-03-29T12:34:50;19.08;36.48
69589;SHT31;56792;50.644;17.984;2024-03-29T12:37:22;19.09;36.12
69589;SHT31;56792;50.644;17.984;2024-03-29T12:39:55;19.12;36.62
69589;SHT31;56792;50.644;17.984;2024-03-29T12:42:31;19.11;36.46
69589;SHT31;56792;50.644;17.984;2024-03-29T12:45:02;19.00;36.82
69589;SHT31;56792;50.644;17.984;2024-03-29T12:47:35;18.85;36.98
69589;SHT31;56792;50.644;17.984;2024-03-29T12:50:06;18.87;37.14
69589;SHT31;56792;50.644;17.984;2024-03-29T12:52:40;18.98;36.70
69589;SHT31;56792;50.644;17.984;2024-03-29T12:55:11;19.08;37.15
69589;SHT31;56792;50.644;17.984;2024-03-29T12:57:45;19.20;37.00
69589;SHT31;56792;50.644;17.984;2024-03-29T13:00:16;19.32;37.02
69589;SHT31;56792;50.644;17.984;2024-03-29T13:02:47;19.43;37.55
69589;SHT31;56792;50.644;17.984;2024-03-29T13:05:19;19.49;37.23
69589;SHT31;56792;50.644;17.984;2024-03-29T13:07:50;19.43;37.24
69589;SHT31;56792;50.644;17.984;2024-03-29T13:10:23;19.44;37.64
69589;SHT31;56792;50.644;17.984;2024-03-29T13:12:54;19.44;37.44
69589;SHT31;56792;50.644;17.984;2024-03-29T13:15:26;19.44;37.46
69589;SHT31;56792;50.644;17.984;2024-03-29T13:18:00;19.30;37.65
69589;SHT31;56792;50.644;17.984;2024-03-29T13:20:32;19.16;37.36
69589;SHT31;56792;50.644;17.984;2024-03-29T13:23:07;19.13;37.76
69589;SHT31;56792;50.644;17.984;2024-03-29T13:25:38;19.20;37.36
69589;SHT31;56792;50.644;17.984;2024-03-29T13:28:09;19.18;37.78
69589;SHT31;56792;50.644;17.984;2024-03-29T13:30:40;19.26;37.90
69589;SHT31;56792;50.644;17.984;2024-03-29T13:33:12;19.31;37.50
69589;SHT31;56792;50.644;17.984;2024-03-29T13:35:43;19.19;37.33
69589;SHT31;56792;50.644;17.984;2024-03-29T13:38:14;19.16;38.05
69589;SHT31;56792;50.644;17.984;2024-03-29T13:40:49;19.10;37.61
69589;SHT31;56792;50.644;17.984;2024-03-29T13:43:20;19.05;38.24
69589;SHT31;56792;50.644;17.984;2024-03-29T13:45:51;19.09;38.67
69589;SHT31;56792;50.644;17.984;2024-03-29T13:48:22;19.15;38.52
69589;SHT31;56792;50.644;17.984;2024-03-29T13:50:53;19.10;38.17
69589;SHT31;56792;50.644;17.984;2024-03-29T13:53:25;19.09;38.60
69589;SHT31;56792;50.644;17.984;2024-03-29T13:56:01;19.09;38.86
69589;SHT31;56792;50.644;17.984;2024-03-29T13:58:33;19.02;38.92
69589;SHT31;56792;50.644;17.984;2024-03-29T14:01:04;19.01;39.09
69589;SHT31;56792;50.644;17.984;2024-03-29T14:03:35;18.96;39.12
69589;SHT31;56792;50.644;17.984;2024-03-29T14:06:06;18.90;39.41
69589;SHT31;56792;50.644;17.984;2024-03-29T14:08:38;18.85;39.41
69589;SHT31;56792;50.644;17.984;2024-03-29T14:11:08;18.86;39.72
69589;SHT31;56792;50.644;17.984;2024-03-29T14:13:40;18.89;40.01
69589;SHT31;56792;50.644;17.984;2024-03-29T14:16:14;18.91;40.44
69589;SHT31;56792;50.644;17.984;2024-03-29T14:18:45;18.84;39.71
69589;SHT31;56792;50.644;17.984;2024-03-29T14:21:16;18.85;40.18
69589;SHT31;56792;50.644;17.984;2024-03-29T14:23:47;18.81;39.80
69589;SHT31;56792;50.644;17.984;2024-03-29T14:26:18;18.78;40.17
69589;SHT31;56792;50.644;17.984;2024-03-29T14:28:49;18.76;40.76
69589;SHT31;56792;50.644;17.984;2024-03-29T14:31:20;18.72;41.07
69589;SHT31;56792;50.644;17.984;2024-03-29T14:33:51;18.61;40.52
69589;SHT31;56792;50.644;17.984;2024-03-29T14:36:22;18.50;41.18
69589;SHT31;56792;50.644;17.984;2024-03-29T14:38:53;18.39;41.78
69589;SHT31;56792;50.644;17.984;2024-03-29T14:41:24;18.23;41.89
69589;SHT31;56792;50.644;17.984;2024-03-29T14:43:55;18.05;42.15
69589;SHT31;56792;50.644;17.984;2024-03-29T14:46:26;17.92;42.90
69589;SHT31;56792;50.644;17.984;2024-03-29T14:48:57;17.80;43.47
69589;SHT31;56792;50.644;17.984;2024-03-29T14:51:31;17.73;43.71
69589;SHT31;56792;50.644;17.984;2024-03-29T14:54:02;17.64;43.88
69589;SHT31;56792;50.644;17.984;2024-03-29T14:56:34;17.58;44.45
69589;SHT31;56792;50.644;17.984;2024-03-29T14:59:05;17.50;44.76
69589;SHT31;56792;50.644;17.984;2024-03-29T15:01:38;17.44;44.30
69589;SHT31;56792;50.644;17.984;2024-03-29T15:04:10;17.35;44.07
69589;SHT31;56792;50.644;17.984;2024-03-29T15:06:41;17.29;44.83
69589;SHT31;56792;50.644;17.984;2024-03-29T15:09:12;17.24;45.07
69589;SHT31;56792;50.644;17.984;2024-03-29T15:11:43;17.24;45.50
69589;SHT31;56792;50.644;17.984;2024-03-29T15:14:14;17.19;45.69
69589;SHT31;56792;50.644;17.984;2024-03-29T15:16:45;17.15;45.66
69589;SHT31;56792;50.644;17.984;2024-03-29T15:19:16;17.09;45.98
69589;SHT31;56792;50.644;17.984;2024-03-29T15:21:47;17.04;46.26
69589;SHT31;56792;50.644;17.984;2024-03-29T15:24:19;17.00;46.39
69589;SHT31;56792;50.644;17.984;2024-03-29T15:26:51;16.95;46.98
69589;SHT31;56792;50.644;17.984;2024-03-29T15:29:25;16.89;47.50
69589;SHT31;56792;50.644;17.984;2024-03-29T15:31:55;16.84;47.60
69589;SHT31;56792;50.644;17.984;2024-03-29T15:34:26;16.78;47.73
69589;SHT31;56792;50.644;17.984;2024-03-29T15:36:58;16.74;47.92
69589;SHT31;56792;50.644;17.984;2024-03-29T15:39:28;16.69;48.14
69589;SHT31;56792;50.644;17.984;2024-03-29T15:41:59;16.66;48.39
69589;SHT31;56792;50.644;17.984;2024-03-29T15:44:31;16.64;48.63
69589;SHT31;56792;50.644;17.984;2024-03-29T15:47:02;16.61;48.81
69589;SHT31;56792;50.644;17.984;2024-03-29T15:49:33;16.57;49.02
69589;SHT31;56792;50.644;17.984;2024-03-29T15:52:04;16.55;49.22